sensor_id;sensor_type;location;lat;lon;timestamp;pressure;altitude;pressure_sealevel;temperature;humidity
13434;BME280;6789;47.678;9.158;2023-03-04T00:03:10;97210.97;;;3.51;100.00
13434;BME280;6789;47.678;9.158;2023-03-04T00:08:05;97213.75;;;3.41;100.00
13434;BME280;6789;47.678;9.158;2023-03-04T00:13:11;97216.22;;;3.35;100.00
13434;BME280;6789;47.678;9.158;2023-03-04T00:18:03;97214.81;;;3.24;100.00
13434;BME280;6789;47.678;9.158;2023-03-04T00:22:57;97213.97;;;3.24;100.00
13434;BME280;6789;47.678;9.158;2023-03-04T00:27:57;97215.78;;;3.15;100.00
13434;BME280;6789;47.678;9.158;2023-03-04T00:33:03;97207.56;;;3.04;100.00
13434;BME280;6789;47.678;9.158;2023-03-04T00:38:09;97208.88;;;3.00;100.00
13434;BME280;6789;47.678;9.158;2023-03-04T00:43:03;97220.06;;;2.84;100.00
13434;BME280;6789;47.678;9.158;2023-03-04T00:47:55;97225.44;;;2.67;100.00
13434;BME280;6789;47.678;9.158;2023-03-04T00:53:00;97218.81;;;2.65;100.00
13434;BME280;6789;47.678;9.158;2023-03-04T00:57:52;97224.16;;;2.71;100.00
13434;BME280;6789;47.678;9.158;2023-03-04T01:02:44;97217.84;;;2.66;100.00
13434;BME280;6789;47.678;9.158;2023-03-04T01:07:36;97215.06;;;2.67;100.00
13434;BME280;6789;47.678;9.158;2023-03-04T01:12:42;97204.91;;;2.58;100.00
13434;BME280;6789;47.678;9.158;2023-03-04T01:17:34;97209.13;;;2.51;100.00
13434;BME280;6789;47.678;9.158;2023-03-04T01:22:27;97198.28;;;2.47;100.00
13434;BME280;6789;47.678;9.158;2023-03-04T01:27:34;97196.97;;;2.43;100.00
13434;BME280;6789;47.678;9.158;2023-03-04T01:32:40;97197.00;;;2.35;100.00
13434;BME280;6789;47.678;9.158;2023-03-04T01:37:32;97199.41;;;2.29;100.00
13434;BME280;6789;47.678;9.158;2023-03-04T01:42:27;97195.69;;;2.23;100.00
13434;BME280;6789;47.678;9.158;2023-03-04T01:47:23;97193.94;;;2.24;100.00
13434;BME280;6789;47.678;9.158;2023-03-04T01:52:17;97199.09;;;2.16;100.00
13434;BME280;6789;47.678;9.158;2023-03-04T01:57:23;97193.28;;;2.06;100.00
13434;BME280;6789;47.678;9.158;2023-03-04T02:02:29;97191.34;;;2.00;100.00
13434;BME280;6789;47.678;9.158;2023-03-04T02:07:20;97187.44;;;1.96;100.00
13434;BME280;6789;47.678;9.158;2023-03-04T02:12:12;97184.50;;;1.83;100.00
13434;BME280;6789;47.678;9.158;2023-03-04T02:17:11;97189.53;;;1.85;100.00
13434;BME280;6789;47.678;9.158;2023-03-04T02:22:03;97174.97;;;1.76;100.00
13434;BME280;6789;47.678;9.158;2023-03-04T02:26:54;97172.84;;;1.71;100.00
13434;BME280;6789;47.678;9.158;2023-03-04T02:31:50;97181.25;;;1.65;100.00
13434;BME280;6789;47.678;9.158;2023-03-04T02:36:45;97165.75;;;1.57;100.00
13434;BME280;6789;47.678;9.158;2023-03-04T02:41:37;97168.63;;;1.54;100.00
13434;BME280;6789;47.678;9.158;2023-03-04T02:46:29;97169.59;;;1.53;100.00
13434;BME280;6789;47.678;9.158;2023-03-04T02:51:21;97157.78;;;1.51;100.00
13434;BME280;6789;47.678;9.158;2023-03-04T02:56:13;97171.53;;;1.51;100.00
13434;BME280;6789;47.678;9.158;2023-03-04T03:01:05;97163.91;;;1.50;100.00
13434;BME280;6789;47.678;9.158;2023-03-04T03:05:57;97167.00;;;1.45;100.00
13434;BME280;6789;47.678;9.158;2023-03-04T03:10:48;97163.91;;;1.42;100.00
13434;BME280;6789;47.678;9.158;2023-03-04T03:15:40;97155.00;;;1.37;100.00
13434;BME280;6789;47.678;9.158;2023-03-04T03:20:32;97154.53;;;1.33;100.00
13434;BME280;6789;47.678;9.158;2023-03-04T03:25:24;97160.72;;;1.07;100.00
13434;BME280;6789;47.678;9.158;2023-03-04T03:30:16;97175.06;;;1.01;100.00
13434;BME280;6789;47.678;9.158;2023-03-04T03:35:22;97166.16;;;0.96;100.00
13434;BME280;6789;47.678;9.158;2023-03-04T03:40:28;97174.22;;;0.93;100.00
13434;BME280;6789;47.678;9.158;2023-03-04T03:45:34;97169.84;;;0.93;100.00
13434;BME280;6789;47.678;9.158;2023-03-04T03:50:40;97166.63;;;0.91;100.00
13434;BME280;6789;47.678;9.158;2023-03-04T03:55:47;97161.97;;;0.95;100.00
13434;BME280;6789;47.678;9.158;2023-03-04T04:00:53;97163.22;;;0.91;100.00
13434;BME280;6789;47.678;9.158;2023-03-04T04:05:59;97171.06;;;0.81;100.00
13434;BME280;6789;47.678;9.158;2023-03-04T04:11:09;97174.75;;;0.71;100.00
13434;BME280;6789;47.678;9.158;2023-03-04T04:16:15;97173.75;;;0.72;100.00
13434;BME280;6789;47.678;9.158;2023-03-04T04:21:21;97186.66;;;0.72;100.00
13434;BME280;6789;47.678;9.158;2023-03-04T04:26:26;97169.88;;;0.68;100.00
13434;BME280;6789;47.678;9.158;2023-03-04T04:31:33;97176.00;;;0.67;100.00
13434;BME280;6789;47.678;9.158;2023-03-04T04:36:25;97174.38;;;0.66;100.00
13434;BME280;6789;47.678;9.158;2023-03-04T04:41:21;97182.50;;;0.71;100.00
13434;BME280;6789;47.678;9.158;2023-03-04T04:46:14;97177.97;;;0.73;100.00
13434;BME280;6789;47.678;9.158;2023-03-04T04:51:07;97186.31;;;0.67;100.00
13434;BME280;6789;47.678;9.158;2023-03-04T04:56:22;97187.69;;;0.54;100.00
13434;BME280;6789;47.678;9.158;2023-03-04T05:01:17;97187.78;;;0.44;100.00
13434;BME280;6789;47.678;9.158;2023-03-04T05:06:23;97189.34;;;0.37;100.00
13434;BME280;6789;47.678;9.158;2023-03-04T05:11:18;97195.22;;;0.47;100.00
13434;BME280;6789;47.678;9.158;2023-03-04T05:16:24;97185.38;;;0.68;100.00
13434;BME280;6789;47.678;9.158;2023-03-04T05:21:19;97194.50;;;0.88;100.00
13434;BME280;6789;47.678;9.158;2023-03-04T05:26:17;97180.44;;;1.16;100.00
13434;BME280;6789;47.678;9.158;2023-03-04T05:31:23;97188.19;;;1.16;100.00
13434;BME280;6789;47.678;9.158;2023-03-04T05:36:15;97180.97;;;1.27;100.00
13434;BME280;6789;47.678;9.158;2023-03-04T05:41:07;97187.34;;;1.48;100.00
13434;BME280;6789;47.678;9.158;2023-03-04T05:46:00;97187.16;;;1.50;100.00
13434;BME280;6789;47.678;9.158;2023-03-04T05:50:58;97182.84;;;1.58;100.00
13434;BME280;6789;47.678;9.158;2023-03-04T05:55:54;97180.28;;;1.66;100.00
13434;BME280;6789;47.678;9.158;2023-03-04T06:00:48;97192.09;;;1.77;100.00
13434;BME280;6789;47.678;9.158;2023-03-04T06:05:46;97191.78;;;1.88;100.00
13434;BME280;6789;47.678;9.158;2023-03-04T06:10:55;97195.53;;;2.01;100.00
13434;BME280;6789;47.678;9.158;2023-03-04T06:15:54;97210.38;;;1.91;100.00
13434;BME280;6789;47.678;9.158;2023-03-04T06:21:00;97219.13;;;2.06;100.00
13434;BME280;6789;47.678;9.158;2023-03-04T06:25:57;97225.28;;;2.05;100.00
13434;BME280;6789;47.678;9.158;2023-03-04T06:30:55;97227.38;;;2.10;100.00
13434;BME280;6789;47.678;9.158;2023-03-04T06:35:55;97226.56;;;2.17;100.00
13434;BME280;6789;47.678;9.158;2023-03-04T06:40:51;97236.13;;;2.16;100.00
13434;BME280;6789;47.678;9.158;2023-03-04T06:45:47;97227.41;;;2.33;100.00
13434;BME280;6789;47.678;9.158;2023-03-04T06:50:39;97227.53;;;2.40;100.00
13434;BME280;6789;47.678;9.158;2023-03-04T06:55:32;97230.16;;;2.56;100.00
13434;BME280;6789;47.678;9.158;2023-03-04T07:00:38;97235.78;;;2.67;100.00
13434;BME280;6789;47.678;9.158;2023-03-04T07:05:30;97240.97;;;2.83;100.00
13434;BME280;6789;47.678;9.158;2023-03-04T07:10:22;97236.13;;;2.72;100.00
13434;BME280;6789;47.678;9.158;2023-03-04T07:15:15;97238.19;;;2.84;100.00
13434;BME280;6789;47.678;9.158;2023-03-04T07:20:08;97239.16;;;2.99;100.00
13434;BME280;6789;47.678;9.158;2023-03-04T07:25:14;97251.44;;;3.05;100.00
13434;BME280;6789;47.678;9.158;2023-03-04T07:30:17;97239.75;;;3.17;100.00
13434;BME280;6789;47.678;9.158;2023-03-04T07:35:09;97249.00;;;3.12;100.00
13434;BME280;6789;47.678;9.158;2023-03-04T07:40:10;97251.44;;;3.05;100.00
13434;BME280;6789;47.678;9.158;2023-03-04T07:45:04;97254.34;;;3.10;100.00
13434;BME280;6789;47.678;9.158;2023-03-04T07:49:57;97251.88;;;3.25;100.00
13434;BME280;6789;47.678;9.158;2023-03-04T07:54:50;97259.63;;;3.33;100.00
13434;BME280;6789;47.678;9.158;2023-03-04T07:59:43;97256.69;;;3.44;100.00
13434;BME280;6789;47.678;9.158;2023-03-04T08:04:36;97253.41;;;3.50;100.00
13434;BME280;6789;47.678;9.158;2023-03-04T08:09:28;97262.31;;;3.55;100.00
13434;BME280;6789;47.678;9.158;2023-03-04T08:14:22;97262.94;;;3.57;100.00
13434;BME280;6789;47.678;9.158;2023-03-04T08:19:16;97263.81;;;3.42;100.00
13434;BME280;6789;47.678;9.158;2023-03-04T08:24:22;97265.78;;;3.40;100.00
13434;BME280;6789;47.678;9.158;2023-03-04T08:29:28;97264.56;;;3.58;100.00
13434;BME280;6789;47.678;9.158;2023-03-04T08:34:25;97267.03;;;3.82;100.00
13434;BME280;6789;47.678;9.158;2023-03-04T08:39:30;97269.59;;;3.90;100.00
13434;BME280;6789;47.678;9.158;2023-03-04T08:44:37;97266.81;;;3.69;100.00
13434;BME280;6789;47.678;9.158;2023-03-04T08:49:30;97266.13;;;3.75;100.00
13434;BME280;6789;47.678;9.158;2023-03-04T08:54:30;97265.03;;;4.00;100.00
13434;BME280;6789;47.678;9.158;2023-03-04T08:59:22;97271.97;;;4.07;100.00
13434;BME280;6789;47.678;9.158;2023-03-04T09:04:17;97278.84;;;4.22;100.00
13434;BME280;6789;47.678;9.158;2023-03-04T09:09:17;97276.78;;;4.40;100.00
13434;BME280;6789;47.678;9.158;2023-03-04T09:14:23;97271.53;;;4.48;100.00
13434;BME280;6789;47.678;9.158;2023-03-04T09:19:18;97262.38;;;4.75;100.00
13434;BME280;6789;47.678;9.158;2023-03-04T09:24:11;97258.53;;;5.07;100.00
13434;BME280;6789;47.678;9.158;2023-03-04T09:29:04;97256.53;;;4.95;99.94
13434;BME280;6789;47.678;9.158;2023-03-04T09:34:11;97247.31;;;5.21;100.00
13434;BME280;6789;47.678;9.158;2023-03-04T09:39:06;97256.00;;;5.14;100.00
13434;BME280;6789;47.678;9.158;2023-03-04T09:44:21;97240.25;;;5.59;99.66
13434;BME280;6789;47.678;9.158;2023-03-04T09:49:29;97252.16;;;5.67;97.06
13434;BME280;6789;47.678;9.158;2023-03-04T10:05:14;97238.56;;;6.78;91.64
13434;BME280;6789;47.678;9.158;2023-03-04T10:10:31;97237.81;;;6.42;91.75
13434;BME280;6789;47.678;9.158;2023-03-04T10:15:42;97242.13;;;6.49;92.27
13434;BME280;6789;47.678;9.158;2023-03-04T10:20:52;97233.78;;;6.81;91.45
13434;BME280;6789;47.678;9.158;2023-03-04T10:25:45;97229.59;;;6.87;90.62
13434;BME280;6789;47.678;9.158;2023-03-04T10:31:32;97227.06;;;7.20;89.73
13434;BME280;6789;47.678;9.158;2023-03-04T10:37:04;97223.25;;;7.23;87.38
13434;BME280;6789;47.678;9.158;2023-03-04T10:47:24;97211.00;;;7.57;86.99
13434;BME280;6789;47.678;9.158;2023-03-04T10:52:35;97201.06;;;7.80;86.67
13434;BME280;6789;47.678;9.158;2023-03-04T10:57:38;97200.44;;;7.72;84.97
13434;BME280;6789;47.678;9.158;2023-03-04T11:02:47;97206.13;;;7.88;84.88
13434;BME280;6789;47.678;9.158;2023-03-04T11:07:58;97187.81;;;7.75;84.35
13434;BME280;6789;47.678;9.158;2023-03-04T11:18:09;97187.28;;;7.99;85.42
13434;BME280;6789;47.678;9.158;2023-03-04T11:23:16;97174.31;;;8.18;84.40
13434;BME280;6789;47.678;9.158;2023-03-04T11:28:45;97170.72;;;8.39;83.27
13434;BME280;6789;47.678;9.158;2023-03-04T11:34:19;97170.25;;;8.16;83.35
13434;BME280;6789;47.678;9.158;2023-03-04T11:39:46;97160.66;;;8.36;83.51
13434;BME280;6789;47.678;9.158;2023-03-04T11:44:46;97155.44;;;8.74;81.68
13434;BME280;6789;47.678;9.158;2023-03-04T12:11:45;97123.38;;;7.88;87.15
13434;BME280;6789;47.678;9.158;2023-03-04T12:17:28;97123.09;;;7.58;89.43
13434;BME280;6789;47.678;9.158;2023-03-04T12:44:19;97073.44;;;8.24;86.53
13434;BME280;6789;47.678;9.158;2023-03-04T12:49:48;97069.22;;;8.29;87.07
13434;BME280;6789;47.678;9.158;2023-03-04T12:55:09;97060.97;;;8.45;86.17
13434;BME280;6789;47.678;9.158;2023-03-04T13:00:43;97055.31;;;8.74;84.84
13434;BME280;6789;47.678;9.158;2023-03-04T13:16:43;97030.28;;;8.97;82.20
13434;BME280;6789;47.678;9.158;2023-03-04T13:21:45;97025.44;;;9.01;80.19
13434;BME280;6789;47.678;9.158;2023-03-04T13:26:40;97024.47;;;8.95;80.08
13434;BME280;6789;47.678;9.158;2023-03-04T13:32:04;97024.25;;;8.97;80.02
13434;BME280;6789;47.678;9.158;2023-03-04T13:37:01;97013.78;;;8.97;79.80
13434;BME280;6789;47.678;9.158;2023-03-04T13:41:56;97013.31;;;9.13;77.86
13434;BME280;6789;47.678;9.158;2023-03-04T13:47:29;97006.22;;;9.26;76.69
13434;BME280;6789;47.678;9.158;2023-03-04T13:52:40;97004.78;;;9.30;75.70
13434;BME280;6789;47.678;9.158;2023-03-04T13:57:49;96999.88;;;9.46;73.35
13434;BME280;6789;47.678;9.158;2023-03-04T14:02:55;97000.25;;;9.81;73.60
13434;BME280;6789;47.678;9.158;2023-03-04T14:08:19;97002.88;;;9.50;72.15
13434;BME280;6789;47.678;9.158;2023-03-04T14:13:27;97001.81;;;9.57;72.91
13434;BME280;6789;47.678;9.158;2023-03-04T14:18:20;96987.25;;;9.68;73.77
13434;BME280;6789;47.678;9.158;2023-03-04T14:23:33;96985.38;;;9.44;74.29
13434;BME280;6789;47.678;9.158;2023-03-04T14:28:57;96973.16;;;8.94;76.38
13434;BME280;6789;47.678;9.158;2023-03-04T14:33:55;96980.41;;;8.92;77.52
13434;BME280;6789;47.678;9.158;2023-03-04T14:39:12;96965.66;;;9.11;77.80
13434;BME280;6789;47.678;9.158;2023-03-04T14:44:42;96970.91;;;8.48;80.62
13434;BME280;6789;47.678;9.158;2023-03-04T14:49:50;96963.47;;;8.45;82.13
13434;BME280;6789;47.678;9.158;2023-03-04T14:55:26;96954.31;;;8.79;81.26
13434;BME280;6789;47.678;9.158;2023-03-04T15:00:36;96945.41;;;8.87;81.71
13434;BME280;6789;47.678;9.158;2023-03-04T15:05:42;96935.59;;;8.82;80.88
13434;BME280;6789;47.678;9.158;2023-03-04T15:10:37;96932.28;;;9.00;80.18
13434;BME280;6789;47.678;9.158;2023-03-04T15:15:45;96928.00;;;9.12;77.48
13434;BME280;6789;47.678;9.158;2023-03-04T15:20:37;96924.41;;;9.06;75.93
13434;BME280;6789;47.678;9.158;2023-03-04T15:25:43;96926.19;;;9.12;74.64
13434;BME280;6789;47.678;9.158;2023-03-04T15:30:50;96926.69;;;9.27;73.29
13434;BME280;6789;47.678;9.158;2023-03-04T15:35:53;96922.28;;;9.21;74.79
13434;BME280;6789;47.678;9.158;2023-03-04T15:41:00;96925.75;;;9.15;75.20
13434;BME280;6789;47.678;9.158;2023-03-04T15:46:00;96925.72;;;8.84;71.34
13434;BME280;6789;47.678;9.158;2023-03-04T15:51:16;96934.28;;;8.60;71.25
13434;BME280;6789;47.678;9.158;2023-03-04T15:56:29;96925.91;;;8.46;71.68
13434;BME280;6789;47.678;9.158;2023-03-04T16:01:36;96933.13;;;8.37;71.51
13434;BME280;6789;47.678;9.158;2023-03-04T16:06:47;96932.75;;;8.40;73.93
13434;BME280;6789;47.678;9.158;2023-03-04T16:11:55;96932.31;;;8.50;74.90
13434;BME280;6789;47.678;9.158;2023-03-04T16:16:56;96932.31;;;8.50;75.35
13434;BME280;6789;47.678;9.158;2023-03-04T16:22:02;96932.38;;;8.04;76.98
13434;BME280;6789;47.678;9.158;2023-03-04T16:26:54;96935.00;;;7.85;78.49
13434;BME280;6789;47.678;9.158;2023-03-04T16:32:00;96931.22;;;7.62;79.20
13434;BME280;6789;47.678;9.158;2023-03-04T16:36:53;96926.41;;;7.52;79.35
13434;BME280;6789;47.678;9.158;2023-03-04T16:41:48;96934.78;;;7.41;79.22
13434;BME280;6789;47.678;9.158;2023-03-04T16:46:48;96938.00;;;7.30;79.27
13434;BME280;6789;47.678;9.158;2023-03-04T16:51:53;96936.78;;;7.13;79.92
13434;BME280;6789;47.678;9.158;2023-03-04T16:56:50;96933.94;;;6.96;81.66
13434;BME280;6789;47.678;9.158;2023-03-04T17:01:56;96929.28;;;6.85;81.87
13434;BME280;6789;47.678;9.158;2023-03-04T17:06:49;96929.88;;;6.80;82.24
13434;BME280;6789;47.678;9.158;2023-03-04T17:11:55;96930.66;;;6.74;82.56
13434;BME280;6789;47.678;9.158;2023-03-04T17:16:50;96934.22;;;6.67;83.36
13434;BME280;6789;47.678;9.158;2023-03-04T17:21:58;96942.59;;;6.56;83.91
13434;BME280;6789;47.678;9.158;2023-03-04T17:26:59;96945.94;;;6.43;86.00
13434;BME280;6789;47.678;9.158;2023-03-04T17:32:05;96953.63;;;6.24;88.28
13434;BME280;6789;47.678;9.158;2023-03-04T17:37:12;96952.78;;;6.17;87.08
13434;BME280;6789;47.678;9.158;2023-03-04T17:42:19;96968.41;;;6.17;88.86
13434;BME280;6789;47.678;9.158;2023-03-04T17:47:25;96985.69;;;6.25;88.10
13434;BME280;6789;47.678;9.158;2023-03-04T17:52:32;96984.16;;;6.37;86.64
13434;BME280;6789;47.678;9.158;2023-03-04T17:57:38;96982.66;;;6.55;86.57
13434;BME280;6789;47.678;9.158;2023-03-04T18:02:44;96994.91;;;6.61;88.06
13434;BME280;6789;47.678;9.158;2023-03-04T18:07:38;96997.16;;;6.70;87.53
13434;BME280;6789;47.678;9.158;2023-03-04T18:12:44;97003.84;;;6.86;85.01
13434;BME280;6789;47.678;9.158;2023-03-04T18:17:38;97003.75;;;6.66;82.53
13434;BME280;6789;47.678;9.158;2023-03-04T18:22:33;97026.44;;;6.72;80.97
13434;BME280;6789;47.678;9.158;2023-03-04T18:27:27;97021.63;;;6.69;80.12
13434;BME280;6789;47.678;9.158;2023-03-04T18:32:22;97028.00;;;6.67;80.27
13434;BME280;6789;47.678;9.158;2023-03-04T18:37:28;97040.91;;;6.41;78.71
13434;BME280;6789;47.678;9.158;2023-03-04T18:42:21;97045.69;;;6.10;78.41
13434;BME280;6789;47.678;9.158;2023-03-04T18:47:13;97048.97;;;5.77;78.18
13434;BME280;6789;47.678;9.158;2023-03-04T18:52:09;97066.19;;;5.43;79.23
13434;BME280;6789;47.678;9.158;2023-03-04T18:57:14;97071.13;;;5.17;78.56
13434;BME280;6789;47.678;9.158;2023-03-04T19:02:40;97076.19;;;4.75;79.52
13434;BME280;6789;47.678;9.158;2023-03-04T19:07:41;97089.78;;;4.48;80.38
13434;BME280;6789;47.678;9.158;2023-03-04T19:12:48;97094.41;;;4.38;79.27
13434;BME280;6789;47.678;9.158;2023-03-04T19:17:48;97108.44;;;4.15;80.36
13434;BME280;6789;47.678;9.158;2023-03-04T19:22:41;97107.88;;;3.83;81.25
13434;BME280;6789;47.678;9.158;2023-03-04T19:27:41;97121.00;;;3.59;82.39
13434;BME280;6789;47.678;9.158;2023-03-04T19:32:42;97127.56;;;3.47;83.96
13434;BME280;6789;47.678;9.158;2023-03-04T19:37:36;97137.84;;;3.33;84.31
13434;BME280;6789;47.678;9.158;2023-03-04T19:42:41;97140.94;;;3.28;84.64
13434;BME280;6789;47.678;9.158;2023-03-04T19:47:47;97140.84;;;3.14;85.33
13434;BME280;6789;47.678;9.158;2023-03-04T19:52:41;97147.78;;;3.13;85.59
13434;BME280;6789;47.678;9.158;2023-03-04T19:57:35;97142.25;;;3.24;85.09
13434;BME280;6789;47.678;9.158;2023-03-04T20:02:41;97161.28;;;3.09;86.42
13434;BME280;6789;47.678;9.158;2023-03-04T20:07:48;97169.47;;;3.20;85.65
13434;BME280;6789;47.678;9.158;2023-03-04T20:12:54;97182.88;;;3.24;84.67
13434;BME280;6789;47.678;9.158;2023-03-04T20:17:47;97190.91;;;3.06;85.74
13434;BME280;6789;47.678;9.158;2023-03-04T20:22:53;97188.13;;;3.08;84.91
13434;BME280;6789;47.678;9.158;2023-03-04T20:27:59;97188.25;;;3.14;85.06
13434;BME280;6789;47.678;9.158;2023-03-04T20:32:51;97197.34;;;3.18;84.64
13434;BME280;6789;47.678;9.158;2023-03-04T20:37:57;97194.31;;;2.99;85.21
13434;BME280;6789;47.678;9.158;2023-03-04T20:42:52;97195.28;;;2.98;84.73
13434;BME280;6789;47.678;9.158;2023-03-04T20:47:58;97193.88;;;2.87;85.76
13434;BME280;6789;47.678;9.158;2023-03-04T20:52:54;97194.50;;;2.89;85.19
13434;BME280;6789;47.678;9.158;2023-03-04T20:57:50;97193.03;;;2.79;85.24
13434;BME280;6789;47.678;9.158;2023-03-04T21:02:56;97199.41;;;2.69;86.32
13434;BME280;6789;47.678;9.158;2023-03-04T21:07:49;97195.31;;;2.82;85.91
13434;BME280;6789;47.678;9.158;2023-03-04T21:12:54;97195.16;;;2.83;86.27
13434;BME280;6789;47.678;9.158;2023-03-04T21:18:02;97195.78;;;2.93;85.25
13434;BME280;6789;47.678;9.158;2023-03-04T21:23:08;97194.00;;;3.02;85.34
13434;BME280;6789;47.678;9.158;2023-03-04T21:28:03;97201.75;;;3.02;84.76
13434;BME280;6789;47.678;9.158;2023-03-04T21:33:17;97193.50;;;2.98;85.05
13434;BME280;6789;47.678;9.158;2023-03-04T21:38:26;97194.78;;;3.02;84.44
13434;BME280;6789;47.678;9.158;2023-03-04T21:43:32;97187.19;;;3.01;84.65
13434;BME280;6789;47.678;9.158;2023-03-04T21:48:29;97188.13;;;3.08;84.16
13434;BME280;6789;47.678;9.158;2023-03-04T21:53:35;97179.78;;;2.90;84.90
13434;BME280;6789;47.678;9.158;2023-03-04T21:58:41;97187.69;;;2.88;85.29
13434;BME280;6789;47.678;9.158;2023-03-04T22:03:47;97183.16;;;2.98;84.51
13434;BME280;6789;47.678;9.158;2023-03-04T22:08:55;97188.81;;;2.94;85.38
13434;BME280;6789;47.678;9.158;2023-03-04T22:14:02;97180.25;;;2.93;85.05
13434;BME280;6789;47.678;9.158;2023-03-04T22:19:08;97172.81;;;2.90;85.36
13434;BME280;6789;47.678;9.158;2023-03-04T22:24:14;97160.03;;;2.81;85.60
13434;BME280;6789;47.678;9.158;2023-03-04T22:29:21;97169.75;;;2.79;85.96
13434;BME280;6789;47.678;9.158;2023-03-04T22:34:14;97159.06;;;2.82;84.92
13434;BME280;6789;47.678;9.158;2023-03-04T22:39:13;97151.00;;;2.69;85.32
13434;BME280;6789;47.678;9.158;2023-03-04T22:44:19;97148.09;;;2.72;85.99
13434;BME280;6789;47.678;9.158;2023-03-04T22:49:19;97147.06;;;2.97;83.80
13434;BME280;6789;47.678;9.158;2023-03-04T22:54:24;97152.09;;;2.82;83.61
13434;BME280;6789;47.678;9.158;2023-03-04T22:59:36;97153.44;;;2.71;84.62
13434;BME280;6789;47.678;9.158;2023-03-04T23:04:43;97150.19;;;2.77;84.65
13434;BME280;6789;47.678;9.158;2023-03-04T23:09:49;97139.88;;;2.69;85.00
13434;BME280;6789;47.678;9.158;2023-03-04T23:14:57;97139.88;;;2.69;84.74
13434;BME280;6789;47.678;9.158;2023-03-04T23:20:05;97144.50;;;2.89;83.81
13434;BME280;6789;47.678;9.158;2023-03-04T23:25:12;97131.38;;;2.90;83.60
13434;BME280;6789;47.678;9.158;2023-03-04T23:30:21;97136.22;;;2.93;83.76
13434;BME280;6789;47.678;9.158;2023-03-04T23:35:28;97125.81;;;3.09;82.11
13434;BME280;6789;47.678;9.158;2023-03-04T23:40:34;97126.19;;;2.98;82.57
13434;BME280;6789;47.678;9.158;2023-03-04T23:45:40;97119.72;;;2.94;82.61
13434;BME280;6789;47.678;9.158;2023-03-04T23:50:52;97125.81;;;3.09;82.34
13434;BME280;6789;47.678;9.158;2023-03-04T23:55:59;97124.53;;;3.05;82.86
